createdAt,value
2022-10-01T00:02:16.382Z,10.65
2022-10-01T00:04:45.658Z,10.63
2022-10-01T00:07:15.462Z,10.56
2022-10-01T00:09:44.702Z,10.52
2022-10-01T00:12:15.963Z,10.41
2022-10-01T00:14:45.360Z,10.37
2022-10-01T00:17:16.388Z,10.34
2022-10-01T00:19:45.602Z,10.32
2022-10-01T00:22:15.103Z,10.34
2022-10-01T00:24:45.263Z,10.34
2022-10-01T00:27:14.436Z,10.35
2022-10-01T00:29:45.387Z,10.34
2022-10-01T00:32:16.084Z,10.34
2022-10-01T00:34:45.769Z,10.31
2022-10-01T00:37:15.144Z,10.27
2022-10-01T00:39:44.342Z,10.26
2022-10-01T00:42:19.508Z,10.26
2022-10-01T00:44:49.273Z,10.30
2022-10-01T00:47:30.299Z,10.30
2022-10-01T00:50:05.877Z,10.28
2022-10-01T00:52:39.775Z,10.24
2022-10-01T00:55:13.122Z,10.25
2022-10-01T00:57:43.665Z,10.26
2022-10-01T01:00:14.896Z,10.22
2022-10-01T01:02:45.973Z,10.22
2022-10-01T01:05:15.210Z,10.22
2022-10-01T01:07:48.001Z,10.24
2022-10-01T01:10:20.757Z,10.26
2022-10-01T01:13:01.726Z,10.24
2022-10-01T01:15:37.326Z,10.22
2022-10-01T01:18:13.437Z,10.26
2022-10-01T01:21:01.290Z,10.23
2022-10-01T01:23:59.859Z,10.19
2022-10-01T01:26:38.796Z,10.15
2022-10-01T01:29:18.284Z,10.11
2022-10-01T01:31:49.581Z,10.04
2022-10-01T01:34:23.436Z,9.97
2022-10-01T01:36:58.622Z,9.95
2022-10-01T01:39:32.677Z,9.89
2022-10-01T01:42:07.268Z,9.90
2022-10-01T01:44:41.287Z,9.89
2022-10-01T01:47:12.225Z,9.83
2022-10-01T01:49:42.194Z,9.82
2022-10-01T01:52:15.962Z,9.80
2022-10-01T01:54:47.708Z,9.80
2022-10-01T01:57:18.997Z,9.79
2022-10-01T01:59:49.783Z,9.78
2022-10-01T02:02:24.766Z,9.76
2022-10-01T02:04:58.106Z,9.75
2022-10-01T02:07:57.236Z,9.71
2022-10-01T02:10:40.801Z,9.70
2022-10-01T02:13:25.784Z,9.71
2022-10-01T02:16:05.718Z,9.69
2022-10-01T02:18:44.358Z,9.68
2022-10-01T02:21:21.496Z,9.66
2022-10-01T02:23:58.137Z,9.60
2022-10-01T02:26:30.239Z,9.61
2022-10-01T02:29:06.826Z,9.59
2022-10-01T02:31:38.325Z,9.59
2022-10-01T02:34:12.711Z,9.57
2022-10-01T02:36:45.430Z,9.60
2022-10-01T02:39:17.681Z,9.62
2022-10-01T02:41:49.238Z,9.62
2022-10-01T02:44:22.948Z,9.64
2022-10-01T02:46:58.142Z,9.63
2022-10-01T02:49:30.737Z,9.61
2022-10-01T02:52:05.351Z,9.61
2022-10-01T02:54:41.443Z,9.59
2022-10-01T02:57:27.513Z,9.59
2022-10-01T02:59:59.868Z,9.58
2022-10-01T03:02:33.000Z,9.60
2022-10-01T03:05:03.180Z,9.63
2022-10-01T03:07:35.649Z,9.62
2022-10-01T03:10:05.443Z,9.62
2022-10-01T03:12:34.741Z,9.61
2022-10-01T03:15:04.006Z,9.61
2022-10-01T03:17:36.158Z,9.59
2022-10-01T03:20:05.853Z,9.58
2022-10-01T03:22:36.282Z,9.58
2022-10-01T03:25:05.508Z,9.53
2022-10-01T03:27:34.685Z,9.47
2022-10-01T03:30:04.400Z,9.41
2022-10-01T03:32:35.048Z,9.35
2022-10-01T03:35:04.501Z,9.32
2022-10-01T03:37:33.731Z,9.28
2022-10-01T03:40:03.268Z,9.25
2022-10-01T03:42:32.596Z,9.22
2022-10-01T03:45:01.804Z,9.18
2022-10-01T03:47:31.256Z,9.15
2022-10-01T03:50:01.972Z,9.13
2022-10-01T03:52:31.093Z,9.12
2022-10-01T03:55:00.753Z,9.15
2022-10-01T03:57:30.083Z,9.15
2022-10-01T03:59:59.184Z,9.17
2022-10-01T04:02:28.410Z,9.15
2022-10-01T04:04:58.161Z,9.16
2022-10-01T04:07:28.854Z,9.15
2022-10-01T04:09:58.129Z,9.18
2022-10-01T04:12:27.252Z,9.20
2022-10-01T04:14:56.343Z,9.18
2022-10-01T04:17:25.714Z,9.09
2022-10-01T04:19:57.687Z,9.03
2022-10-01T04:22:28.479Z,8.98
2022-10-01T04:25:05.559Z,8.95
2022-10-01T04:27:37.078Z,8.95
2022-10-01T04:30:07.907Z,8.96
2022-10-01T04:32:47.387Z,8.97
2022-10-01T04:35:17.008Z,8.95
2022-10-01T04:37:47.855Z,8.89
2022-10-01T04:40:17.426Z,8.88
2022-10-01T04:42:47.233Z,8.84
2022-10-01T04:45:16.613Z,8.83
2022-10-01T04:47:53.578Z,8.86
2022-10-01T04:50:24.307Z,8.86
2022-10-01T04:52:55.678Z,8.89
2022-10-01T04:55:25.533Z,8.92
2022-10-01T04:57:54.860Z,8.93
2022-10-01T05:00:26.560Z,8.93
2022-10-01T05:02:57.915Z,8.90
2022-10-01T05:05:29.166Z,8.91
2022-10-01T05:08:00.217Z,8.89
2022-10-01T05:10:29.632Z,8.86
2022-10-01T05:13:01.250Z,8.87
2022-10-01T05:15:31.495Z,8.87
2022-10-01T05:18:00.670Z,8.90
2022-10-01T05:20:30.716Z,8.93
2022-10-01T05:23:01.204Z,8.94
2022-10-01T05:25:30.372Z,8.93
2022-10-01T05:28:05.793Z,8.99
2022-10-01T05:30:35.862Z,9.02
2022-10-01T05:33:06.409Z,9.06
2022-10-01T05:35:35.586Z,9.09
2022-10-01T05:38:06.386Z,9.10
2022-10-01T05:40:35.646Z,9.15
2022-10-01T05:43:05.467Z,9.17
2022-10-01T05:45:35.834Z,9.20
2022-10-01T05:48:07.088Z,9.23
2022-10-01T05:50:40.293Z,9.26
2022-10-01T05:53:14.022Z,9.28
2022-10-01T05:55:43.481Z,9.30
2022-10-01T05:58:14.506Z,9.30
2022-10-01T06:00:44.672Z,9.34
2022-10-01T06:03:15.275Z,9.30
2022-10-01T06:05:46.382Z,9.34
2022-10-01T06:08:17.241Z,9.35
2022-10-01T06:10:48.496Z,9.42
2022-10-01T06:13:18.757Z,9.48
2022-10-01T06:15:48.178Z,9.57
2022-10-01T06:18:17.338Z,9.63
2022-10-01T06:20:46.794Z,9.72
2022-10-01T06:23:17.452Z,9.81
2022-10-01T06:25:47.405Z,9.85
2022-10-01T06:28:19.343Z,9.90
2022-10-01T06:30:49.772Z,9.97
2022-10-01T06:33:19.816Z,10.05
2022-10-01T06:35:52.347Z,10.15
2022-10-01T06:38:25.410Z,10.21
2022-10-01T06:40:55.830Z,10.26
2022-10-01T06:43:26.222Z,10.31
2022-10-01T06:45:55.953Z,10.36
2022-10-01T06:48:25.378Z,10.39
2022-10-01T06:50:56.483Z,10.45
2022-10-01T06:53:28.399Z,10.56
2022-10-01T06:55:58.126Z,10.60
2022-10-01T06:58:27.459Z,10.67
2022-10-01T07:01:00.256Z,10.73
2022-10-01T07:03:31.183Z,10.81
2022-10-01T07:06:05.196Z,10.87
2022-10-01T07:08:36.083Z,10.94
2022-10-01T07:11:05.670Z,10.98
2022-10-01T07:13:34.798Z,11.07
2022-10-01T07:16:05.399Z,11.17
2022-10-01T07:18:34.773Z,11.21
2022-10-01T07:21:04.052Z,11.28
2022-10-01T07:23:33.431Z,11.30
2022-10-01T07:26:06.107Z,11.38
2022-10-01T07:28:35.691Z,11.45
2022-10-01T07:31:09.723Z,11.50
2022-10-01T07:33:39.450Z,11.51
2022-10-01T07:36:12.346Z,11.53
2022-10-01T07:38:43.540Z,11.60
2022-10-01T07:41:17.210Z,11.66
2022-10-01T07:43:49.853Z,11.71
2022-10-01T07:46:19.197Z,11.81
2022-10-01T07:48:50.980Z,11.86
2022-10-01T07:51:20.126Z,11.92
2022-10-01T07:53:50.943Z,12.01
2022-10-01T07:56:21.587Z,12.11
2022-10-01T07:58:51.623Z,12.17
2022-10-01T08:01:20.835Z,12.25
2022-10-01T08:03:50.746Z,12.33
2022-10-01T08:06:25.336Z,12.39
2022-10-01T08:08:54.830Z,12.49
2022-10-01T08:11:25.652Z,12.55
2022-10-01T08:13:57.248Z,12.63
2022-10-01T08:16:30.163Z,12.73
2022-10-01T08:18:59.435Z,12.82
2022-10-01T08:21:30.404Z,12.92
2022-10-01T08:23:59.553Z,12.96
2022-10-01T08:26:30.397Z,13.06
2022-10-01T08:29:00.976Z,13.15
2022-10-01T08:31:30.431Z,13.24
2022-10-01T08:33:59.787Z,13.27
2022-10-01T08:36:29.262Z,13.31
2022-10-01T08:38:58.696Z,13.36
2022-10-01T08:41:40.988Z,13.46
2022-10-01T08:44:19.732Z,13.55
2022-10-01T08:46:51.315Z,13.61
2022-10-01T08:49:27.242Z,13.68
2022-10-01T08:52:00.838Z,13.78
2022-10-01T08:54:36.114Z,13.83
2022-10-01T08:57:13.248Z,13.89
2022-10-01T08:59:45.066Z,13.96
2022-10-01T09:02:22.635Z,14.01
2022-10-01T09:05:00.301Z,14.04
2022-10-01T09:07:46.473Z,14.08
2022-10-01T09:10:43.608Z,14.14
2022-10-01T09:13:39.468Z,14.17
2022-10-01T09:16:18.097Z,14.24
2022-10-01T09:19:02.070Z,14.29
2022-10-01T09:21:48.018Z,14.34
2022-10-01T09:24:24.151Z,14.34
2022-10-01T09:26:53.967Z,14.32
2022-10-01T09:29:29.706Z,14.39
2022-10-01T09:32:02.079Z,14.47
2022-10-01T09:34:38.573Z,14.62
2022-10-01T09:37:14.997Z,14.74
2022-10-01T09:39:52.290Z,14.87
2022-10-01T09:42:25.527Z,14.97
2022-10-01T09:44:56.683Z,15.09
2022-10-01T09:47:27.075Z,15.18
2022-10-01T09:49:57.214Z,15.21
2022-10-01T09:52:34.576Z,15.35
2022-10-01T09:55:07.738Z,15.44
2022-10-01T09:57:42.897Z,15.55
2022-10-01T10:00:19.453Z,15.64
2022-10-01T10:02:51.118Z,15.70
2022-10-01T10:05:21.818Z,15.79
2022-10-01T10:07:54.311Z,15.81
2022-10-01T10:10:27.006Z,15.87
2022-10-01T10:13:00.239Z,15.97
2022-10-01T10:15:33.215Z,16.11
2022-10-01T10:18:10.207Z,16.20
2022-10-01T10:20:43.062Z,16.29
2022-10-01T10:23:17.603Z,16.34
2022-10-01T10:25:56.758Z,16.34
2022-10-01T10:28:27.654Z,16.32
2022-10-01T10:30:59.598Z,16.30
2022-10-01T10:33:29.119Z,16.32
2022-10-01T10:36:01.558Z,16.33
2022-10-01T10:38:34.796Z,16.51
2022-10-01T10:41:06.284Z,16.71
2022-10-01T10:43:38.295Z,16.83
2022-10-01T10:46:10.739Z,16.93
2022-10-01T10:48:45.080Z,17.11
2022-10-01T10:51:14.301Z,17.19
2022-10-01T10:53:45.514Z,17.45
2022-10-01T10:56:23.017Z,17.78
2022-10-01T10:58:54.032Z,18.15
2022-10-01T11:01:30.009Z,18.67
2022-10-01T11:04:02.218Z,18.46
2022-10-01T11:06:31.740Z,18.22
2022-10-01T11:09:04.975Z,18.11
2022-10-01T11:11:46.951Z,18.24
2022-10-01T11:14:32.191Z,18.24
2022-10-01T11:17:28.060Z,18.11
2022-10-01T11:20:17.486Z,17.96
2022-10-01T11:22:59.224Z,17.79
2022-10-01T11:25:40.254Z,17.70
2022-10-01T11:28:27.896Z,17.73
2022-10-01T11:31:09.734Z,17.66
2022-10-01T11:33:55.721Z,17.62
2022-10-01T11:36:30.514Z,17.59
2022-10-01T11:39:02.848Z,17.57
2022-10-01T11:41:38.301Z,17.49
2022-10-01T11:44:15.459Z,17.40
2022-10-01T11:47:00.575Z,17.23
2022-10-01T11:49:54.366Z,17.14
2022-10-01T11:52:33.972Z,17.07
2022-10-01T11:55:30.334Z,16.99
2022-10-01T11:58:24.322Z,16.94
2022-10-01T12:01:03.469Z,16.88
2022-10-01T12:03:39.383Z,16.84
2022-10-01T12:06:15.160Z,16.81
2022-10-01T12:08:53.945Z,16.77
2022-10-01T12:11:29.430Z,16.77
2022-10-01T12:14:04.540Z,16.79
2022-10-01T12:16:45.211Z,16.83
2022-10-01T12:19:21.686Z,16.81
2022-10-01T12:21:56.456Z,16.75
2022-10-01T12:24:31.402Z,16.74
2022-10-01T12:27:11.802Z,16.68
2022-10-01T12:29:51.497Z,16.58
2022-10-01T12:32:27.852Z,16.55
2022-10-01T12:35:07.000Z,16.58
2022-10-01T12:37:53.248Z,16.73
2022-10-01T12:40:33.490Z,16.80
2022-10-01T12:43:46.071Z,16.90
2022-10-01T12:46:26.209Z,16.96
2022-10-01T12:49:07.678Z,16.98
2022-10-01T12:51:42.548Z,16.92
2022-10-01T12:54:37.945Z,16.85
2022-10-01T12:57:29.163Z,16.73
2022-10-01T13:00:08.240Z,16.67
2022-10-01T13:03:16.755Z,16.65
2022-10-01T13:05:58.397Z,16.60
2022-10-01T13:08:42.309Z,16.56
2022-10-01T13:11:26.678Z,16.54
2022-10-01T13:13:57.440Z,16.46
2022-10-01T13:16:37.036Z,16.46
2022-10-01T13:19:14.557Z,16.34
2022-10-01T13:21:57.803Z,16.33
2022-10-01T13:24:33.747Z,16.25
2022-10-01T13:27:10.995Z,16.19
2022-10-01T13:29:50.744Z,16.15
2022-10-01T13:32:29.454Z,16.09
2022-10-01T13:35:01.008Z,16.06
2022-10-01T13:37:39.376Z,16.03
2022-10-01T13:40:25.360Z,16.05
2022-10-01T13:43:01.022Z,16.02
2022-10-01T13:45:34.345Z,15.98
2022-10-01T13:48:17.448Z,15.97
2022-10-01T13:51:03.472Z,15.91
2022-10-01T13:53:35.399Z,15.89
2022-10-01T13:56:06.235Z,15.81
2022-10-01T13:58:42.476Z,15.79
2022-10-01T14:01:28.530Z,15.77
2022-10-01T14:04:03.907Z,15.70
2022-10-01T14:06:42.927Z,15.72
2022-10-01T14:09:20.869Z,15.66
2022-10-01T14:12:11.190Z,15.64
2022-10-01T14:15:01.952Z,15.62
2022-10-01T14:17:33.442Z,15.58
2022-10-01T14:20:03.644Z,15.59
2022-10-01T14:22:45.757Z,15.56
2022-10-01T14:25:27.720Z,15.57
2022-10-01T14:28:22.038Z,15.51
2022-10-01T14:31:02.695Z,15.50
2022-10-01T14:33:52.157Z,15.52
2022-10-01T14:36:29.533Z,15.50
2022-10-01T14:39:16.311Z,15.49
2022-10-01T14:41:46.304Z,15.43
2022-10-01T14:44:27.838Z,15.39
2022-10-01T14:47:00.651Z,15.34
2022-10-01T14:49:31.714Z,15.33
2022-10-01T14:52:04.255Z,15.27
2022-10-01T14:54:43.929Z,15.26
2022-10-01T14:57:17.683Z,15.24
2022-10-01T14:59:49.946Z,15.16
2022-10-01T15:02:23.450Z,15.13
2022-10-01T15:04:55.292Z,15.11
2022-10-01T15:07:26.387Z,15.11
2022-10-01T15:10:06.321Z,15.07
2022-10-01T15:12:42.301Z,15.00
2022-10-01T15:15:20.619Z,15.02
2022-10-01T15:17:51.763Z,15.01
2022-10-01T15:20:21.309Z,14.97
2022-10-01T15:22:59.028Z,14.95
2022-10-01T15:25:32.736Z,14.94
2022-10-01T15:28:02.392Z,14.91
2022-10-01T15:30:32.262Z,14.89
2022-10-01T15:33:22.254Z,14.90
2022-10-01T15:35:51.964Z,14.86
2022-10-01T15:38:21.189Z,14.87
2022-10-01T15:41:04.992Z,14.82
2022-10-01T15:43:43.876Z,14.79
2022-10-01T15:46:19.535Z,14.78
2022-10-01T15:49:10.697Z,14.75
2022-10-01T15:52:08.304Z,14.72
2022-10-01T15:54:38.902Z,14.68
2022-10-01T15:57:09.147Z,14.65
2022-10-01T15:59:41.074Z,14.60
2022-10-01T16:02:16.586Z,14.62
2022-10-01T16:04:48.067Z,14.61
2022-10-01T16:07:23.000Z,14.62
2022-10-01T16:09:57.671Z,14.62
2022-10-01T16:12:29.139Z,14.62
2022-10-01T16:14:59.867Z,14.59
2022-10-01T16:17:34.435Z,14.58
2022-10-01T16:20:37.913Z,14.56
2022-10-01T16:23:44.500Z,14.49
2022-10-01T16:26:40.581Z,14.47
2022-10-01T16:29:26.743Z,14.47
2022-10-01T16:31:58.023Z,14.47
2022-10-01T16:34:28.909Z,14.43
2022-10-01T16:36:59.756Z,14.42
2022-10-01T16:39:28.982Z,14.39
2022-10-01T16:42:22.369Z,14.37
2022-10-01T16:44:47.603Z,14.35
2022-10-01T16:47:16.723Z,14.35
2022-10-01T16:49:47.559Z,14.32
2022-10-01T16:52:18.383Z,14.32
2022-10-01T16:54:47.947Z,14.34
2022-10-01T16:57:17.625Z,14.30
2022-10-01T16:59:46.841Z,14.29
2022-10-01T17:02:16.635Z,14.27
2022-10-01T17:04:46.145Z,14.26
2022-10-01T17:07:15.352Z,14.27
2022-10-01T17:09:45.963Z,14.23
2022-10-01T17:12:15.746Z,14.15
2022-10-01T17:14:44.896Z,14.08
2022-10-01T17:17:14.093Z,14.07
2022-10-01T17:19:43.496Z,14.06
2022-10-01T17:22:12.695Z,14.05
2022-10-01T17:24:41.868Z,14.00
2022-10-01T17:27:12.678Z,13.96
2022-10-01T17:29:41.819Z,13.97
2022-10-01T17:32:12.337Z,13.93
2022-10-01T17:34:42.667Z,13.90
2022-10-01T17:37:12.859Z,13.88
2022-10-01T17:39:43.104Z,13.85
2022-10-01T17:42:15.091Z,13.86
2022-10-01T17:44:44.537Z,13.82
2022-10-01T17:47:14.556Z,13.78
2022-10-01T17:49:44.372Z,13.80
2022-10-01T17:52:13.846Z,13.78
2022-10-01T17:54:43.010Z,13.77
2022-10-01T17:57:13.904Z,13.78
2022-10-01T17:59:43.338Z,13.78
2022-10-01T18:02:39.969Z,13.77
2022-10-01T18:05:08.299Z,13.71
2022-10-01T18:07:37.721Z,13.71
2022-10-01T18:10:08.972Z,13.67
2022-10-01T18:12:39.641Z,13.68
2022-10-01T18:15:10.254Z,13.66
2022-10-01T18:17:43.442Z,13.67
2022-10-01T18:20:16.060Z,13.68
2022-10-01T18:22:45.269Z,13.67
2022-10-01T18:25:16.111Z,13.63
2022-10-01T18:27:49.964Z,13.62
2022-10-01T18:30:20.252Z,13.62
2022-10-01T18:32:57.024Z,13.62
2022-10-01T18:35:32.206Z,13.58
2022-10-01T18:38:07.862Z,13.52
2022-10-01T18:40:43.519Z,13.51
2022-10-01T18:43:23.273Z,13.49
2022-10-01T18:46:06.316Z,13.47
2022-10-01T18:49:00.839Z,13.45
2022-10-01T18:51:51.018Z,13.43
2022-10-01T18:54:49.524Z,13.33
2022-10-01T18:57:31.138Z,13.24
2022-10-01T19:00:24.051Z,13.18
2022-10-01T19:03:27.110Z,13.13
2022-10-01T19:06:33.588Z,13.03
2022-10-01T19:09:28.129Z,13.03
2022-10-01T19:12:06.270Z,13.03
2022-10-01T19:14:50.863Z,13.01
2022-10-01T19:17:46.530Z,13.01
2022-10-01T19:20:29.695Z,12.92
2022-10-01T19:23:19.251Z,12.90
2022-10-01T19:25:52.352Z,12.89
2022-10-01T19:28:36.458Z,12.87
2022-10-01T19:31:14.429Z,12.86
2022-10-01T19:33:51.605Z,12.88
2022-10-01T19:36:31.330Z,12.82
2022-10-01T19:39:07.707Z,12.75
2022-10-01T19:41:43.339Z,12.64
2022-10-01T19:44:16.634Z,12.58
2022-10-01T19:46:48.335Z,12.52
2022-10-01T19:49:27.542Z,12.56
2022-10-01T19:52:00.241Z,12.53
2022-10-01T19:54:34.230Z,12.53
2022-10-01T19:57:17.067Z,12.50
2022-10-01T19:59:47.206Z,12.45
2022-10-01T20:02:28.385Z,12.43
2022-10-01T20:05:03.496Z,12.37
2022-10-01T20:07:42.441Z,12.39
2022-10-01T20:10:21.251Z,12.39
2022-10-01T20:13:00.877Z,12.38
2022-10-01T20:15:42.144Z,12.30
2022-10-01T20:18:28.030Z,12.31
2022-10-01T20:21:21.434Z,12.25
2022-10-01T20:23:57.069Z,12.26
2022-10-01T20:26:32.374Z,12.28
2022-10-01T20:29:25.606Z,12.31
2022-10-01T20:32:03.216Z,12.31
2022-10-01T20:34:45.197Z,12.29
2022-10-01T20:37:34.966Z,12.31
2022-10-01T20:40:12.631Z,12.25
2022-10-01T20:42:47.032Z,12.22
2022-10-01T20:45:21.271Z,12.24
2022-10-01T20:47:55.204Z,12.20
2022-10-01T20:50:34.098Z,12.20
2022-10-01T20:53:16.305Z,12.10
2022-10-01T20:55:51.805Z,12.21
2022-10-01T20:58:27.814Z,12.19
2022-10-01T21:01:03.851Z,12.18
2022-10-01T21:03:38.735Z,12.22
2022-10-01T21:06:12.302Z,12.19
2022-10-01T21:08:50.113Z,12.23
2022-10-01T21:11:30.546Z,12.25
2022-10-01T21:14:07.899Z,12.23
2022-10-01T21:17:03.695Z,12.19
2022-10-01T21:19:51.779Z,12.16
2022-10-01T21:22:33.386Z,12.16
2022-10-01T21:25:14.495Z,12.14
2022-10-01T21:28:09.390Z,12.04
2022-10-01T21:30:53.774Z,12.02
2022-10-01T21:33:27.011Z,12.00
2022-10-01T21:36:03.897Z,12.00
2022-10-01T21:38:40.770Z,12.02
2022-10-01T21:41:29.230Z,11.99
2022-10-01T21:44:19.880Z,12.00
2022-10-01T21:46:56.371Z,11.96
2022-10-01T21:49:37.212Z,11.94
2022-10-01T21:52:20.255Z,11.95
2022-10-01T21:55:06.945Z,11.96
2022-10-01T21:57:55.439Z,11.99
2022-10-01T22:00:28.814Z,11.97
2022-10-01T22:03:08.726Z,11.97
2022-10-01T22:05:44.947Z,11.98
2022-10-01T22:08:35.270Z,11.99
2022-10-01T22:11:12.123Z,11.97
2022-10-01T22:13:51.442Z,11.95
2022-10-01T22:16:23.176Z,11.94
2022-10-01T22:18:56.745Z,11.89
2022-10-01T22:21:32.265Z,11.85
2022-10-01T22:24:07.262Z,11.84
2022-10-01T22:26:40.426Z,11.80
2022-10-01T22:29:16.797Z,11.80
2022-10-01T22:31:49.821Z,11.81
2022-10-01T22:34:23.608Z,11.86
2022-10-01T22:36:58.816Z,11.89
2022-10-01T22:39:32.126Z,11.91
2022-10-01T22:42:07.803Z,11.92
2022-10-01T22:44:39.212Z,11.87
2022-10-01T22:47:40.720Z,11.88
2022-10-01T22:50:25.046Z,11.85
2022-10-01T22:53:09.171Z,11.87
2022-10-01T22:55:47.884Z,11.86
2022-10-01T22:58:39.032Z,11.85
2022-10-01T23:01:22.682Z,11.83
2022-10-01T23:04:05.480Z,11.87
2022-10-01T23:06:41.386Z,11.86
2022-10-01T23:09:18.930Z,11.88
2022-10-01T23:11:56.730Z,11.86
2022-10-01T23:14:54.739Z,11.89
2022-10-01T23:17:33.378Z,11.87
2022-10-01T23:20:17.621Z,11.91
2022-10-01T23:23:03.223Z,11.92
2022-10-01T23:25:45.197Z,11.91
2022-10-01T23:28:24.161Z,11.90
2022-10-01T23:31:02.092Z,11.83
2022-10-01T23:33:49.058Z,11.82
2022-10-01T23:36:33.770Z,11.86
2022-10-01T23:39:41.820Z,11.86
2022-10-01T23:42:32.354Z,11.80
2022-10-01T23:45:19.907Z,11.82
2022-10-01T23:47:56.383Z,11.85
2022-10-01T23:50:32.220Z,11.88
2022-10-01T23:53:11.540Z,11.83
2022-10-01T23:56:05.271Z,11.88
2022-10-01T23:58:41.758Z,11.92
